Map

Track Data

SID SEASON NUMBER BASIN SUBBASIN NAME ISO_TIME NATURE LAT LON WMO_WIND WMO_PRES WMO_AGENCY TRACK_TYPE DIST2LAND LANDFALL IFLAG USA_AGENCY USA_ATCF_ID USA_LAT USA_LON USA_RECORD USA_STATUS USA_WIND USA_PRES USA_SSHS USA_R34_NE USA_R34_SE USA_R34_SW USA_R34_NW USA_R50_NE USA_R50_SE USA_R50_SW USA_R50_NW USA_R64_NE USA_R64_SE USA_R64_SW USA_R64_NW USA_POCI USA_ROCI USA_RMW USA_EYE TOKYO_LAT TOKYO_LON TOKYO_GRADE TOKYO_WIND TOKYO_PRES TOKYO_R50_DIR TOKYO_R50_LONG TOKYO_R50_SHORT TOKYO_R30_DIR TOKYO_R30_LONG TOKYO_R30_SHORT TOKYO_LAND CMA_LAT CMA_LON CMA_CAT CMA_WIND CMA_PRES HKO_LAT HKO_LON HKO_CAT HKO_WIND HKO_PRES NEWDELHI_LAT NEWDELHI_LON NEWDELHI_GRADE NEWDELHI_WIND NEWDELHI_PRES NEWDELHI_CI NEWDELHI_DP NEWDELHI_POCI REUNION_LAT REUNION_LON REUNION_TYPE REUNION_WIND REUNION_PRES REUNION_TNUM REUNION_CI REUNION_RMW REUNION_R34_NE REUNION_R34_SE REUNION_R34_SW REUNION_R34_NW REUNION_R50_NE REUNION_R50_SE REUNION_R50_SW REUNION_R50_NW REUNION_R64_NE REUNION_R64_SE REUNION_R64_SW REUNION_R64_NW BOM_LAT BOM_LON BOM_TYPE BOM_WIND BOM_PRES BOM_TNUM BOM_CI BOM_RMW BOM_R34_NE BOM_R34_SE BOM_R34_SW BOM_R34_NW BOM_R50_NE BOM_R50_SE BOM_R50_SW BOM_R50_NW BOM_R64_NE BOM_R64_SE BOM_R64_SW BOM_R64_NW BOM_ROCI BOM_POCI BOM_EYE BOM_POS_METHOD BOM_PRES_METHOD NADI_LAT NADI_LON NADI_CAT NADI_WIND NADI_PRES WELLINGTON_LAT WELLINGTON_LON WELLINGTON_WIND WELLINGTON_PRES DS824_LAT DS824_LON DS824_STAGE DS824_WIND DS824_PRES TD9636_LAT TD9636_LON TD9636_STAGE TD9636_WIND TD9636_PRES TD9635_LAT TD9635_LON TD9635_WIND TD9635_PRES TD9635_ROCI NEUMANN_LAT NEUMANN_LON NEUMANN_CLASS NEUMANN_WIND NEUMANN_PRES MLC_LAT MLC_LON MLC_CLASS MLC_WIND MLC_PRES USA_GUST BOM_GUST BOM_GUST_PER REUNION_GUST REUNION_GUST_PER USA_SEAHGT USA_SEARAD_NE USA_SEARAD_SE USA_SEARAD_SW USA_SEARAD_NW STORM_SPEED STORM_DIR
2007313N16148 2007 79 WP MM TAPAH 2007-11-09 06:00:00 NR 16.3000 147.700 main 2061 2061 O_____________ jtwc_wp WP222007 16.3000 147.700 DB 15 1010 -3 18 294
2007313N16148 2007 79 WP MM TAPAH 2007-11-09 09:00:00 NR 16.6708 146.826 main 2105 2088 P_____________ WP222007 16.6708 146.826 DB 17 1008 -3 18 293
2007313N16148 2007 79 WP MM TAPAH 2007-11-09 12:00:00 NR 17.0000 146.000 main 2088 2033 O_____________ jtwc_wp WP222007 17.0000 146.000 DB 20 1007 -3 1009 210 45 16 292
2007313N16148 2007 79 WP MM TAPAH 2007-11-09 15:00:00 NR 17.2646 145.262 main 2033 1981 P_____________ WP222007 17.2646 145.262 DB 20 1007 -3 1009 210 45 14 291
2007313N16148 2007 79 WP MM TAPAH 2007-11-09 18:00:00 NR 17.5000 144.600 main 1981 1934 O_____________ jtwc_wp WP222007 17.5000 144.600 DB 20 1007 -3 1009 210 45 13 292
2007313N16148 2007 79 WP MM TAPAH 2007-11-09 21:00:00 NR 17.7497 143.985 main 1934 1879 P_____________ WP222007 17.7497 143.985 DB 20 1007 -3 1009 210 45 12 294
2007313N16148 2007 79 WP MM TAPAH 2007-11-10 00:00:00 NR 18.0000 143.400 main 1879 1835 O_____________ jtwc_wp WP222007 18.0000 143.400 DB 20 1007 -3 1009 210 45 13 294
2007313N16148 2007 79 WP MM TAPAH 2007-11-10 03:00:00 NR 18.2576 142.770 main 1824 1781 P_____________ WP222007 18.2576 142.770 DB 20 1005 -3 1009 200 40 12 294
2007313N16148 2007 79 WP MM TAPAH 2007-11-10 06:00:00 NR 18.5000 142.200 main 1781 1746 O_____________ jtwc_wp WP222007 18.5000 142.200 DB 20 1004 -3 1009 190 35 10 295
2007313N16148 2007 79 WP MM TAPAH 2007-11-10 09:00:00 NR 18.6997 141.770 main 1746 1712 P_____________ WP222007 18.6997 141.770 DB 20 1004 -3 1008 190 35 9 298
2007313N16148 2007 79 WP MM TAPAH 2007-11-10 12:00:00 NR 18.9000 141.400 main 1712 1677 O_____________ jtwc_wp WP222007 18.9000 141.400 DB 20 1004 -3 1008 190 35 9 301
2007313N16148 2007 79 WP MM TAPAH 2007-11-10 15:00:00 NR 19.1576 140.970 main 1667 1626 P_____________ WP222007 19.1576 140.970 DB 22 1004 -3 1008 190 35 9 303
2007313N16148 2007 79 WP MM TAPAH 2007-11-10 18:00:00 TS 19.4000 140.600 main 1626 1595 O_____________ jtwc_wp WP222007 19.4000 140.600 TD 25 1004 -1 1008 190 35 7 305
2007313N16148 2007 79 WP MM TAPAH 2007-11-10 21:00:00 TS 19.5649 140.362 main 1595 1575 P_____________ WP222007 19.5649 140.362 TD 25 1004 -1 1008 190 35 5 309
2007313N16148 2007 79 WP MM TAPAH 2007-11-11 00:00:00 TS 19.7000 140.200 main 1575 1554 O_____________ jtwc_wp WP222007 19.7000 140.200 TD 25 1004 -1 1008 190 35 4 311
2007313N16148 2007 79 WP MM TAPAH 2007-11-11 03:00:00 TS 19.8425 140.020 main 1554 1530 P_____________ WP222007 19.8425 140.020 TD 27 1002 -1 1007 180 35 4 317
2007313N16148 2007 79 WP MM TAPAH 2007-11-11 06:00:00 TS 20.0000 139.900 main 1530 1505 O_____________ jtwc_wp WP222007 20.0000 139.900 TD 30 1000 -1 1007 170 35 4 331
2007313N16148 2007 79 WP MM TAPAH 2007-11-11 09:00:00 TS 20.1624 139.825 main 1505 1501 P_____________ WP222007 20.1624 139.825 TD 30 1000 -1 1007 170 32 5 29
2007313N16148 2007 79 WP MM TAPAH 2007-11-11 12:00:00 TS 20.4286 140.157 1002 tokyo main 1509 1481 OOOO__________ jtwc_wp WP222007 20.4000 139.900 TD 30 1000 -1 1007 170 30 20.5000 140.500 2 1002 0 0 0 20.4000 140.500 1 29 1002 20.5000 140.500 TD 25 1002 9 47
2007313N16148 2007 79 WP MM TAPAH 2007-11-11 15:00:00 TS 20.7814 140.544 main 1481 1455 PPPP__________ WP222007 20.7547 140.145 TD 32 998 -1 1007 170 30 20.8175 140.810 2 1001 0 0 20.7625 140.810 1 29 1001 20.8175 140.810 TD 27 1001 11 46
2007313N16148 2007 79 WP MM TAPAH 2007-11-11 18:00:00 TS 21.2000 141.015 1000 tokyo main 1455 1425 OOOO__________ jtwc_wp WP222007 21.2000 140.600 TS 35 996 0 1007 170 30 21.2000 141.200 2 1000 0 0 0 21.2000 141.200 1 29 1000 21.2000 141.200 TD 30 1000 14 47
2007313N16148 2007 79 WP MM TAPAH 2007-11-11 21:00:00 TS 21.7013 141.598 main 1425 1398 PPPP__________ WP222007 21.6851 141.233 TS 35 996 0 1005 170 35 21.6851 141.720 2 999 0 0 21.7501 141.720 1 31 998 21.6851 141.720 TD 32 999 15 48
2007313N16148 2007 79 WP MM TAPAH 2007-11-12 00:00:00 TS 22.2250 142.225 35 998 tokyo main 1398 1377 OOOO__________ jtwc_wp WP222007 22.2000 142.000 TS 35 996 0 1004 170 40 22.2000 142.300 3 35 998 0 1 160 80 0 22.3000 142.300 2 34 996 22.2000 142.300 TS 35 998 14 48
2007313N16148 2007 79 WP MM TAPAH 2007-11-12 03:00:00 TS 22.6659 142.742 main 1371 1358 PPPP__________ WP222007 22.7063 142.726 TS 35 996 0 1004 165 40 22.6333 142.747 3 35 997 0 1 160 90 22.6908 142.747 2 34 996 22.6333 142.747 TS 35 997 14 51
2007313N16148 2007 79 WP MM TAPAH 2007-11-12 06:00:00 TS 23.1250 143.450 35 996 tokyo main 1362 1334 OOOO__________ jtwc_wp WP222007 23.2000 143.600 TS 35 996 0 1004 160 40 23.1000 143.400 3 35 996 0 1 160 100 0 23.1000 143.400 2 34 996 23.1000 143.400 TS 35 996 19 60
2007313N16148 2007 79 WP MM TAPAH 2007-11-12 09:00:00 TS 23.6270 144.543 main 1337 1320 PPPP__________ WP222007 23.5503 144.649 TS 35 996 0 1004 160 40 23.6551 144.508 3 35 997 0 1 135 105 23.6476 144.508 2 34 997 23.6551 144.508 TS 35 997 25 63
2007313N16148 2007 79 WP MM TAPAH 2007-11-12 12:00:00 TS 24.2600 145.920 35 998 tokyo main 1316 1316 OOOO__________ jtwc_wp WP222007 24.1000 146.000 TS 35 996 0 1004 160 40 24.3000 145.900 3 35 998 0 9 110 110 0 24.3000 145.900 2 34 998 24.3000 145.900 TS 35 998 29 62
2007313N16148 2007 79 WP MM TAPAH 2007-11-12 15:00:00 TS 24.9808 147.386 main 1318 1315 PPPP__________ WP222007 25.1141 147.727 TS 30 1000 -1 1004 160 40 24.9585 147.329 3 999 0 9 24.9585 147.329 2 31 999 24.9585 147.329 TS 32 999 32 60
2007313N16148 2007 79 WP MM TAPAH 2007-11-12 18:00:00 MX 25.8600 148.980 1000 tokyo main 1322 1322 OOOO__________ jtwc_wp WP222007 26.4000 149.700 EX 25 1004 -4 1004 160 40 25.8000 148.900 2 1000 0 0 0 25.8000 148.900 1 29 1000 25.8000 148.900 TD 30 1000 35 56
2007313N16148 2007 79 WP MM TAPAH 2007-11-12 21:00:00 TS 26.9222 150.602 main 1339 1337 _PPP__________ WP222007 EX -4 26.9222 150.602 2 1002 0 0 26.9222 150.602 1 29 1002 26.9222 150.602 TD 27 1002 38 52
2007313N16148 2007 79 WP MM TAPAH 2007-11-13 00:00:00 TS 28.2000 152.400 1004 tokyo main 1366 _OOO__________ 28.2000 152.400 2 1004 0 0 0 28.2000 152.400 1 29 1004 28.2000 152.400 TD 25 1004 41 51

Digital Typhoon Data and Search

About IBTrACS Database

This database is a web-friendly format of International Best Track Archive for Climate Stewardship (IBTrACS), a global best track data archive curated by NOAA dating back to 1842.

Updated: 2021-12-08